Main page
METAR-TAF:

METAR-TAF

Airports :

Tirana International Airport Nënë Tereza

Tirana, Albania

latitude: 41-20N, longitude: 019-47E, elevation: 89 m

Current weather observation

The report was made 24 minutes ago, at 02:50 UTC
Wind 4 kt from the South/Southeast
Temperature 11°C
Humidity 87%
Pressure 1020 hPa
Visibility 10 km or more
no clouds below 1500 m and no cumulonimbus

METAR: LATI 160250Z 16004KT CAVOK 11/09 Q1020 NOSIG

Time: 05:14 (03:14 UTC)

Forecast

The report was made 4 hours and 14 minutes ago, at 23:00 UTC
Forecast valid from 16 at 00 UTC to 16 at 24 UTC
Wind 4 kt from variable directions
Visibility 10 km or more
no clouds below 1500 m and no cumulonimbus
Temporary
from 16 at 10 UTC to 16 at 17 UTC
Wind 10 kt from the Northwest

TAF: LATI 152300Z 1600/1624 VRB04KT CAVOK TX28/1612Z TN10/1604Z TEMPO 1610/1617 32010KT

Weather observations and forecasts of more than 4000 airports (METAR and TAF reports).

The available stations are represented by yellow and red dots on the map.

Hover mouse over dot to see the name of the station.

Then click to see weather observations and forecasts.

To change the map : click on the green buttons with a black cross to zoom in, on the green button with a dash to zoom out, or on the green arrows for adjacent maps.


METAR-TAF: